This is the latest recevied weather packets stored in our database for station/object IU3OVK-13. If no packets are shown the sender has not sent any weather packets the latest 10 day(s).
| Time | Temp. | Humidity | Pressure | Rain* | Wind** | Luminosity | Snow |
|---|---|---|---|---|---|---|---|
| 1788068980 | 19.44° C | 99% | 1007.9 hPa | - | - | - | - |
| 1788068360 | 18.89° C | 99% | 1007.7 hPa | - | - | - | - |
| 1788067740 | 18.33° C | 99% | 1007.8 hPa | - | - | - | - |
| 1788067133 | 17.78° C | 99% | 1007.9 hPa | - | - | - | - |
| 1788066499 | 18.33° C | 99% | 1007.8 hPa | - | - | - | - |
| 1788065879 | 17.78° C | 99% | 1008 hPa | - | - | - | - |
| 1788065259 | 18.33° C | 99% | 1007.7 hPa | - | - | - | - |
| 1788064639 | 18.89° C | 99% | 1007.5 hPa | - | - | - | - |
| 1788063398 | 17.78° C | 99% | 1008.2 hPa | - | - | - | - |
| 1788062778 | 17.22° C | 99% | 1008.4 hPa | - | - | - | - |
| 1788062158 | 17.78° C | 99% | 1007.9 hPa | - | - | - | - |
| 1788061538 | 17.78° C | 99% | 1007.9 hPa | - | - | - | - |
| 1788060917 | 18.33° C | 99% | 1007.9 hPa | - | - | - | - |
| 1788060297 | 18.33° C | 99% | 1007.9 hPa | - | - | - | - |
| 1788059677 | 18.33° C | 99% | 1007.7 hPa | - | - | - | - |
| 1788059057 | 18.89° C | 99% | 1007.3 hPa | - | - | - | - |
| 1788057816 | 19.44° C | 99% | 1007.1 hPa | - | - | - | - |
| 1788057196 | 18.89° C | 99% | 1007.6 hPa | - | - | - | - |
| 1788056576 | 19.44° C | 99% | 1007.5 hPa | - | - | - | - |
| 1788055956 | 18.89° C | 99% | 1007.7 hPa | - | - | - | - |
| 1788055336 | 18.89° C | 99% | 1007.8 hPa | - | - | - | - |
| 1788054716 | 19.44° C | 99% | 1007.7 hPa | - | - | - | - |
| 1788054095 | 19.44° C | 99% | 1007.8 hPa | - | - | - | - |
| 1788053475 | 18.89° C | 99% | 1007.6 hPa | - | - | - | - |
| 1788052855 | 19.44° C | 99% | 1007.4 hPa | - | - | - | - |
* Rain since midnight (hover to see other rain measurements)
** Current wind speed in m/s (hover to see current wind gust speed)